EWG543 EDDM-LQSA
Flight info
| Callsign | EWG543 |
|---|---|
| Flight time | N/A |
| Altitude | 35000 |
| Route | VAVOR3S/26L VAVOR DCT RADIZ DCT KUSIB DCT BOSNA BOSNA1G |
| Aircraft | A20N/M-SDE2E3FGHIRWXY/LB1 |
Departure
| Time | N/A |
|---|---|
| Airport | Munich Airport (EDDM) |
Arrival
| Time | 2026-04-26 08:23 |
|---|---|
| Airport | Sarajevo International Airport (LQSA) |
| Time | Latitude | Longitude | Altitude | Speed | Heading |
|---|---|---|---|---|---|
| 2026-04-26 08:23 | 43.82546 | 18.33626 | 1693 ft | 0 kts | 22° |
| 2026-04-26 08:28 | 43.82541 | 18.33623 | 1690 ft | 3 kts | 22° |
| 2026-04-26 08:28 | 43.82523 | 18.33613 | 1688 ft | 3 kts | 22° |
| 2026-04-26 08:28 | 43.82512 | 18.33609 | 1685 ft | 2 kts | 10° |
| 2026-04-26 08:28 | 43.82498 | 18.33587 | 1694 ft | 3 kts | 109° |
| 2026-04-26 08:29 | 43.82500 | 18.33579 | 1696 ft | 0 kts | 114° |
| 2026-04-26 08:31 | 43.82498 | 18.33584 | 1694 ft | 0 kts | 121° |
| 2026-04-26 08:31 | 43.82496 | 18.33587 | 1693 ft | 3 kts | 133° |
| 2026-04-26 08:31 | 43.82480 | 18.33610 | 1691 ft | 2 kts | 133° |
| 2026-04-26 08:32 | 43.82478 | 18.33613 | 1689 ft | 0 kts | 133° |
| 2026-04-26 08:32 | 43.82460 | 18.33640 | 1695 ft | 8 kts | 133° |
| 2026-04-26 08:32 | 43.82431 | 18.33693 | 1690 ft | 7 kts | 124° |
| 2026-04-26 08:32 | 43.82404 | 18.33780 | 1691 ft | 8 kts | 112° |
| 2026-04-26 08:33 | 43.82379 | 18.33833 | 1698 ft | 6 kts | 128° |
| 2026-04-26 08:33 | 43.82364 | 18.33865 | 1693 ft | 6 kts | 114° |
| 2026-04-26 08:33 | 43.82336 | 18.33950 | 1696 ft | 17 kts | 117° |
| 2026-04-26 08:33 | 43.82284 | 18.34092 | 1697 ft | 16 kts | 117° |
| 2026-04-26 08:34 | 43.82237 | 18.34214 | 1702 ft | 13 kts | 118° |
| 2026-04-26 08:34 | 43.82198 | 18.34317 | 1702 ft | 12 kts | 117° |
| 2026-04-26 08:34 | 43.82162 | 18.34413 | 1705 ft | 10 kts | 117° |
| 2026-04-26 08:34 | 43.82135 | 18.34486 | 1707 ft | 7 kts | 117° |
| 2026-04-26 08:35 | 43.82120 | 18.34527 | 1707 ft | 3 kts | 117° |
| 2026-04-26 08:35 | 43.82108 | 18.34558 | 1708 ft | 3 kts | 118° |
| 2026-04-26 08:35 | 43.82095 | 18.34585 | 1709 ft | 7 kts | 129° |
| 2026-04-26 08:35 | 43.82062 | 18.34616 | 1710 ft | 5 kts | 160° |
| 2026-04-26 08:36 | 43.82048 | 18.34621 | 1710 ft | 0 kts | 168° |
| 2026-04-26 08:45 | 43.82037 | 18.34623 | 1711 ft | 8 kts | 174° |
| 2026-04-26 08:45 | 43.81978 | 18.34604 | 1710 ft | 9 kts | 199° |
| 2026-04-26 08:45 | 43.81948 | 18.34534 | 1707 ft | 10 kts | 272° |
| 2026-04-26 08:45 | 43.81980 | 18.34440 | 1707 ft | 12 kts | 302° |
| 2026-04-26 08:46 | 43.82022 | 18.34326 | 1700 ft | 14 kts | 286° |
| 2026-04-26 08:46 | 43.82067 | 18.34190 | 1697 ft | 17 kts | 300° |
| 2026-04-26 08:46 | 43.82216 | 18.33793 | 1694 ft | 80 kts | 297° |
| 2026-04-26 08:46 | 43.82581 | 18.32820 | 1678 ft | 145 kts | 297° |
| 2026-04-26 08:47 | 43.83063 | 18.31520 | 2127 ft | 151 kts | 296° |
| 2026-04-26 08:47 | 43.83687 | 18.30378 | 2775 ft | 151 kts | 332° |
| 2026-04-26 08:47 | 43.84712 | 18.29962 | 3367 ft | 163 kts | 346° |
| 2026-04-26 08:47 | 43.85930 | 18.29581 | 3813 ft | 195 kts | 345° |
| 2026-04-26 08:48 | 43.87323 | 18.29091 | 4302 ft | 216 kts | 344° |
| 2026-04-26 08:48 | 43.88796 | 18.28510 | 4986 ft | 231 kts | 342° |
| 2026-04-26 08:48 | 43.90394 | 18.27843 | 5758 ft | 245 kts | 342° |
| 2026-04-26 08:48 | 43.92035 | 18.27134 | 6747 ft | 249 kts | 342° |
| 2026-04-26 08:49 | 43.93701 | 18.26407 | 7742 ft | 253 kts | 341° |
| 2026-04-26 08:49 | 43.95409 | 18.25754 | 8709 ft | 257 kts | 349° |
| 2026-04-26 08:49 | 43.97238 | 18.25413 | 9396 ft | 273 kts | 353° |
| 2026-04-26 08:49 | 43.99175 | 18.25163 | 10168 ft | 284 kts | 354° |
| 2026-04-26 08:50 | 44.01171 | 18.24918 | 11055 ft | 290 kts | 354° |
| 2026-04-26 08:50 | 44.03203 | 18.24663 | 11965 ft | 294 kts | 354° |
| 2026-04-26 08:50 | 44.05218 | 18.24296 | 12858 ft | 299 kts | 346° |
| 2026-04-26 08:50 | 44.07133 | 18.23135 | 13701 ft | 305 kts | 324° |
| 2026-04-26 08:51 | 44.10302 | 18.18658 | 14499 ft | 347 kts | 310° |
| 2026-04-26 08:51 | 44.11910 | 18.16055 | 15062 ft | 361 kts | 310° |
| 2026-04-26 08:51 | 44.13570 | 18.13384 | 15789 ft | 368 kts | 310° |
| 2026-04-26 08:52 | 44.15269 | 18.10669 | 16576 ft | 373 kts | 310° |
| 2026-04-26 08:52 | 44.16989 | 18.07931 | 17330 ft | 378 kts | 311° |
| 2026-04-26 08:52 | 44.18737 | 18.05156 | 18075 ft | 383 kts | 311° |
| 2026-04-26 08:52 | 44.20483 | 18.02385 | 18778 ft | 388 kts | 311° |
| 2026-04-26 08:53 | 44.22277 | 17.99537 | 19455 ft | 393 kts | 311° |
| 2026-04-26 08:53 | 44.24087 | 17.96664 | 19881 ft | 394 kts | 311° |
| 2026-04-26 08:53 | 44.25905 | 17.93775 | 19994 ft | 396 kts | 311° |
| 2026-04-26 08:53 | 44.27723 | 17.90881 | 20000 ft | 397 kts | 311° |
| 2026-04-26 08:54 | 44.29547 | 17.87975 | 20000 ft | 397 kts | 311° |
| 2026-04-26 08:54 | 44.31367 | 17.85074 | 20000 ft | 398 kts | 311° |
| 2026-04-26 08:54 | 44.33168 | 17.82201 | 19999 ft | 398 kts | 311° |
| 2026-04-26 08:54 | 44.34996 | 17.79280 | 20000 ft | 399 kts | 311° |
| 2026-04-26 08:55 | 44.36827 | 17.76353 | 20002 ft | 400 kts | 310° |
| 2026-04-26 08:55 | 44.38655 | 17.73417 | 20000 ft | 400 kts | 310° |
| 2026-04-26 08:55 | 44.40475 | 17.70482 | 20000 ft | 400 kts | 310° |
| 2026-04-26 08:55 | 44.42303 | 17.67530 | 20001 ft | 400 kts | 310° |
| 2026-04-26 08:56 | 44.44126 | 17.64583 | 20000 ft | 400 kts | 310° |
| 2026-04-26 08:56 | 44.45944 | 17.61641 | 20002 ft | 400 kts | 310° |
| 2026-04-26 08:56 | 44.47760 | 17.58699 | 20001 ft | 399 kts | 310° |
| 2026-04-26 08:56 | 44.49571 | 17.55764 | 20000 ft | 398 kts | 310° |
| 2026-04-26 08:57 | 44.51377 | 17.52833 | 20000 ft | 398 kts | 310° |
| 2026-04-26 08:57 | 44.53188 | 17.49892 | 20001 ft | 397 kts | 310° |
| 2026-04-26 08:57 | 44.54992 | 17.46958 | 20002 ft | 397 kts | 310° |
| 2026-04-26 08:57 | 44.56795 | 17.44022 | 20000 ft | 396 kts | 310° |
| 2026-04-26 08:58 | 44.58571 | 17.41127 | 20002 ft | 396 kts | 310° |
| 2026-04-26 08:58 | 44.60367 | 17.38197 | 19999 ft | 396 kts | 310° |
| 2026-04-26 08:58 | 44.62165 | 17.35261 | 20000 ft | 396 kts | 310° |
| 2026-04-26 08:58 | 44.63958 | 17.32340 | 20000 ft | 396 kts | 310° |
| 2026-04-26 08:59 | 44.65764 | 17.29412 | 20001 ft | 396 kts | 310° |
| 2026-04-26 08:59 | 44.67575 | 17.26486 | 20001 ft | 396 kts | 310° |
| 2026-04-26 08:59 | 44.69385 | 17.23563 | 20000 ft | 396 kts | 310° |
| 2026-04-26 08:59 | 44.71191 | 17.20645 | 20002 ft | 396 kts | 310° |
| 2026-04-26 09:00 | 44.72998 | 17.17719 | 19998 ft | 396 kts | 310° |
| 2026-04-26 09:00 | 44.74801 | 17.14797 | 20000 ft | 396 kts | 310° |
| 2026-04-26 09:00 | 44.76607 | 17.11865 | 19998 ft | 396 kts | 310° |
| 2026-04-26 09:00 | 44.78409 | 17.08935 | 19998 ft | 396 kts | 310° |
| 2026-04-26 09:01 | 44.80211 | 17.06003 | 19999 ft | 395 kts | 310° |
| 2026-04-26 09:01 | 44.82007 | 17.03076 | 20000 ft | 395 kts | 310° |
| 2026-04-26 09:01 | 44.83782 | 17.00182 | 20001 ft | 395 kts | 310° |
| 2026-04-26 09:01 | 44.85577 | 16.97246 | 20001 ft | 395 kts | 310° |
| 2026-04-26 09:02 | 44.87367 | 16.94312 | 19999 ft | 395 kts | 310° |
| 2026-04-26 09:02 | 44.89157 | 16.91373 | 20000 ft | 395 kts | 310° |
| 2026-04-26 09:02 | 44.90945 | 16.88437 | 20000 ft | 395 kts | 310° |
| 2026-04-26 09:02 | 44.92729 | 16.85502 | 20001 ft | 394 kts | 310° |
| 2026-04-26 09:03 | 44.94593 | 16.82662 | 19998 ft | 395 kts | 317° |
| 2026-04-26 09:03 | 44.96017 | 16.81062 | 20001 ft | 395 kts | 326° |
| 2026-04-26 09:03 | 44.99299 | 16.78712 | 20003 ft | 396 kts | 337° |
| 2026-04-26 09:03 | 45.01863 | 16.77278 | 20001 ft | 396 kts | 338° |
| 2026-04-26 09:04 | 45.04444 | 16.75897 | 20000 ft | 397 kts | 339° |
| 2026-04-26 09:04 | 45.07028 | 16.74530 | 20000 ft | 397 kts | 339° |
| 2026-04-26 09:04 | 45.09588 | 16.73179 | 19999 ft | 397 kts | 339° |
| 2026-04-26 09:04 | 45.12170 | 16.71816 | 19790 ft | 395 kts | 339° |
| 2026-04-26 09:05 | 45.14749 | 16.70454 | 18991 ft | 398 kts | 339° |
| 2026-04-26 09:05 | 45.17352 | 16.69078 | 18201 ft | 400 kts | 339° |
| 2026-04-26 09:05 | 45.19903 | 16.67428 | 17490 ft | 397 kts | 328° |
| 2026-04-26 09:05 | 45.22080 | 16.65110 | 16846 ft | 393 kts | 319° |
| 2026-04-26 09:06 | 45.24104 | 16.62529 | 16185 ft | 389 kts | 317° |
| 2026-04-26 09:06 | 45.26082 | 16.59926 | 15534 ft | 386 kts | 316° |
| 2026-04-26 09:06 | 45.28015 | 16.57378 | 15353 ft | 370 kts | 316° |
| 2026-04-26 09:06 | 45.29863 | 16.54947 | 15256 ft | 353 kts | 316° |
| 2026-04-26 09:07 | 45.31631 | 16.52623 | 15158 ft | 337 kts | 316° |
| 2026-04-26 09:07 | 45.33323 | 16.50401 | 15026 ft | 324 kts | 316° |
| 2026-04-26 09:07 | 45.34906 | 16.48209 | 14842 ft | 313 kts | 310° |
| 2026-04-26 09:07 | 45.36035 | 16.45600 | 14366 ft | 311 kts | 289° |
| 2026-04-26 09:08 | 45.36349 | 16.42587 | 13914 ft | 309 kts | 266° |
| 2026-04-26 09:08 | 45.35787 | 16.39678 | 13491 ft | 307 kts | 242° |
| 2026-04-26 09:08 | 45.34555 | 16.37252 | 13067 ft | 305 kts | 229° |
| 2026-04-26 09:08 | 45.33111 | 16.35026 | 12638 ft | 304 kts | 227° |
| 2026-04-26 09:09 | 45.31654 | 16.32854 | 12234 ft | 302 kts | 227° |
| 2026-04-26 09:09 | 45.30213 | 16.30699 | 11845 ft | 299 kts | 227° |
| 2026-04-26 09:09 | 45.28790 | 16.28557 | 11454 ft | 297 kts | 227° |
| 2026-04-26 09:09 | 45.27379 | 16.26424 | 11074 ft | 295 kts | 227° |
| 2026-04-26 09:10 | 45.25997 | 16.24326 | 10674 ft | 293 kts | 228° |
| 2026-04-26 09:10 | 45.24798 | 16.22020 | 10290 ft | 289 kts | 244° |
| 2026-04-26 09:10 | 45.24278 | 16.19290 | 9928 ft | 286 kts | 268° |
| 2026-04-26 09:10 | 45.24616 | 16.16553 | 9553 ft | 283 kts | 293° |
| 2026-04-26 09:11 | 45.25707 | 16.14259 | 9190 ft | 281 kts | 312° |
| 2026-04-26 09:11 | 45.27104 | 16.12312 | 8813 ft | 280 kts | 316° |
| 2026-04-26 09:11 | 45.28534 | 16.10453 | 8454 ft | 278 kts | 317° |
| 2026-04-26 09:11 | 45.29960 | 16.08600 | 8098 ft | 277 kts | 317° |
| 2026-04-26 09:12 | 45.31373 | 16.06748 | 7778 ft | 275 kts | 316° |
| 2026-04-26 09:12 | 45.32779 | 16.04892 | 7541 ft | 276 kts | 316° |
| 2026-04-26 09:12 | 45.34185 | 16.03025 | 7278 ft | 276 kts | 316° |
| 2026-04-26 09:12 | 45.35583 | 16.01166 | 6996 ft | 275 kts | 316° |
| 2026-04-26 09:13 | 45.36976 | 15.99310 | 6736 ft | 274 kts | 316° |
| 2026-04-26 09:13 | 45.38347 | 15.97481 | 6467 ft | 273 kts | 316° |
| 2026-04-26 09:13 | 45.39728 | 15.95638 | 6215 ft | 272 kts | 316° |
| 2026-04-26 09:13 | 45.41106 | 15.93797 | 5949 ft | 271 kts | 316° |
| 2026-04-26 09:14 | 45.42474 | 15.91966 | 5697 ft | 270 kts | 316° |
| 2026-04-26 09:14 | 45.43840 | 15.90136 | 5410 ft | 268 kts | 316° |
| 2026-04-26 09:14 | 45.45193 | 15.88319 | 5176 ft | 268 kts | 316° |
| 2026-04-26 09:14 | 45.46550 | 15.86500 | 4919 ft | 267 kts | 316° |
| 2026-04-26 09:15 | 45.47896 | 15.84693 | 4596 ft | 266 kts | 316° |
| 2026-04-26 09:15 | 45.49240 | 15.82890 | 4265 ft | 264 kts | 316° |
| 2026-04-26 09:15 | 45.50573 | 15.81101 | 3998 ft | 263 kts | 316° |
| 2026-04-26 09:15 | 45.51977 | 15.79439 | 3814 ft | 263 kts | 327° |
| 2026-04-26 09:16 | 45.53659 | 15.78580 | 3400 ft | 260 kts | 354° |
| 2026-04-26 09:16 | 45.55423 | 15.78968 | 3043 ft | 260 kts | 22° |
| 2026-04-26 09:16 | 45.56891 | 15.80454 | 2868 ft | 253 kts | 43° |
| 2026-04-26 09:16 | 45.58027 | 15.82157 | 2843 ft | 226 kts | 46° |
| 2026-04-26 09:17 | 45.59068 | 15.83754 | 2853 ft | 214 kts | 46° |
| 2026-04-26 09:17 | 45.59737 | 15.84776 | 2892 ft | 207 kts | 46° |
| 2026-04-26 09:17 | 45.60952 | 15.86624 | 2847 ft | 175 kts | 46° |
| 2026-04-26 09:17 | 45.61718 | 15.87783 | 2864 ft | 146 kts | 45° |
| 2026-04-26 09:18 | 45.62389 | 15.88799 | 2847 ft | 137 kts | 45° |
| 2026-04-26 09:18 | 45.63046 | 15.89792 | 2839 ft | 137 kts | 45° |
| 2026-04-26 09:18 | 45.63697 | 15.90781 | 2857 ft | 136 kts | 45° |
| 2026-04-26 09:18 | 45.64340 | 15.91758 | 2871 ft | 137 kts | 46° |
| 2026-04-26 09:19 | 45.64992 | 15.92750 | 2863 ft | 137 kts | 45° |
| 2026-04-26 09:19 | 45.65424 | 15.93408 | 2851 ft | 137 kts | 45° |
| 2026-04-26 09:19 | 45.66104 | 15.94453 | 2434 ft | 151 kts | 46° |
| 2026-04-26 09:19 | 45.67055 | 15.95891 | 2083 ft | 146 kts | 45° |
| 2026-04-26 09:20 | 45.67514 | 15.96585 | 1953 ft | 138 kts | 45° |
| 2026-04-26 09:20 | 45.68153 | 15.97553 | 1798 ft | 134 kts | 45° |
| 2026-04-26 09:20 | 45.68793 | 15.98523 | 1633 ft | 134 kts | 45° |
| 2026-04-26 09:20 | 45.69435 | 15.99498 | 1460 ft | 134 kts | 45° |
| 2026-04-26 09:21 | 45.70075 | 16.00471 | 1273 ft | 133 kts | 46° |
| 2026-04-26 09:21 | 45.70709 | 16.01432 | 1095 ft | 132 kts | 45° |
| 2026-04-26 09:21 | 45.71340 | 16.02381 | 934 ft | 134 kts | 45° |
| 2026-04-26 09:21 | 45.71968 | 16.03346 | 747 ft | 132 kts | 46° |
| 2026-04-26 09:22 | 45.72595 | 16.04302 | 582 ft | 132 kts | 46° |
| 2026-04-26 09:22 | 45.73224 | 16.05249 | 395 ft | 131 kts | 46° |
| 2026-04-26 09:22 | 45.73781 | 16.06096 | 370 ft | 89 kts | 46° |
| 2026-04-26 09:22 | 45.73945 | 16.06348 | 364 ft | 66 kts | 46° |
| 2026-04-26 09:23 | 45.74106 | 16.06592 | 364 ft | 64 kts | 46° |
| 2026-04-26 09:23 | 45.74234 | 16.06786 | 366 ft | 61 kts | 46° |
| 2026-04-26 09:24 | 45.74433 | 16.07088 | 369 ft | 59 kts | 46° |
| 2026-04-26 09:24 | 45.74675 | 16.07462 | 360 ft | 29 kts | 58° |
| 2026-04-26 09:24 | 45.74604 | 16.07611 | 357 ft | 20 kts | 137° |
| 2026-04-26 09:24 | 45.74498 | 16.07752 | 355 ft | 23 kts | 137° |
| 2026-04-26 09:25 | 45.74495 | 16.07756 | 355 ft | 23 kts | 137° |
| 2026-04-26 09:25 | 45.74489 | 16.07763 | 355 ft | 23 kts | 137° |
| 2026-04-26 09:25 | 45.74375 | 16.07905 | 362 ft | 18 kts | 155° |
| 2026-04-26 09:26 | 45.74313 | 16.07974 | 369 ft | 4 kts | 137° |
| 2026-04-26 09:26 | 45.74299 | 16.07993 | 365 ft | 0 kts | 139° |